createdAt,value
2024-03-28T00:00:06.933Z,73.16
2024-03-28T00:00:17.427Z,73.05
2024-03-28T00:00:27.866Z,72.95
2024-03-28T00:00:38.342Z,72.85
2024-03-28T00:00:51.895Z,72.85
2024-03-28T00:00:59.987Z,72.74
2024-03-28T00:01:09.288Z,72.74
2024-03-28T00:01:19.502Z,72.74
2024-03-28T00:01:29.961Z,72.74
2024-03-28T00:01:40.420Z,72.64
2024-03-28T00:01:50.917Z,72.64
2024-03-28T00:02:01.339Z,72.53
2024-03-28T00:02:11.797Z,72.53
2024-03-28T00:02:22.269Z,72.43
2024-03-28T00:02:32.715Z,72.43
2024-03-28T00:02:43.171Z,72.33
2024-03-28T00:02:53.634Z,72.33
2024-03-28T00:03:04.091Z,72.33
2024-03-28T00:03:14.584Z,72.33
2024-03-28T00:03:27.396Z,72.33
2024-03-28T00:03:35.030Z,72.43
2024-03-28T00:03:45.495Z,72.43
2024-03-28T00:03:55.944Z,72.43
2024-03-28T00:04:06.436Z,72.43
2024-03-28T00:04:16.863Z,72.53
2024-03-28T00:04:37.730Z,72.53
2024-03-28T00:04:48.189Z,72.53
2024-03-28T00:04:58.647Z,72.43
2024-03-28T00:05:09.117Z,72.43
2024-03-28T00:05:19.588Z,72.43
2024-03-28T00:05:29.812Z,72.74
2024-03-28T00:05:40.283Z,73.05
2024-03-28T00:05:50.507Z,73.05
2024-03-28T00:06:00.966Z,73.05
2024-03-28T00:06:11.425Z,72.85
2024-03-28T00:06:21.883Z,72.64
2024-03-28T00:06:32.354Z,72.53
2024-03-28T00:06:42.816Z,72.33
2024-03-28T00:06:53.260Z,72.22
2024-03-28T00:07:03.738Z,72.02
2024-03-28T00:07:14.206Z,71.92
2024-03-28T00:07:25.250Z,71.81
2024-03-28T00:07:34.800Z,71.81
2024-03-28T00:07:44.994Z,71.71
2024-03-28T00:07:55.458Z,71.50
2024-03-28T00:08:05.862Z,71.40
2024-03-28T00:08:16.324Z,71.40
2024-03-28T00:08:26.787Z,71.40
2024-03-28T00:08:37.249Z,71.40
2024-03-28T00:08:47.708Z,71.61
2024-03-28T00:08:58.175Z,71.71
2024-03-28T00:09:08.621Z,71.81
2024-03-28T00:09:19.078Z,71.92
2024-03-28T00:09:29.540Z,71.92
2024-03-28T00:09:39.930Z,71.81
2024-03-28T00:09:50.406Z,71.71
2024-03-28T00:10:00.682Z,71.71
2024-03-28T00:10:10.995Z,71.92
2024-03-28T00:10:21.207Z,72.02
2024-03-28T00:10:31.425Z,72.02
2024-03-28T00:10:41.899Z,71.92
2024-03-28T00:10:52.349Z,71.92
2024-03-28T00:11:02.799Z,71.92
2024-03-28T00:11:13.275Z,71.92
2024-03-28T00:11:23.729Z,71.92
2024-03-28T00:11:34.184Z,71.81
2024-03-28T00:11:44.655Z,71.81
2024-03-28T00:11:55.104Z,71.71
2024-03-28T00:12:05.566Z,71.61
2024-03-28T00:12:16.023Z,71.61
2024-03-28T00:12:26.483Z,71.61
2024-03-28T00:12:36.945Z,71.61
2024-03-28T00:12:47.401Z,71.67
2024-03-28T00:12:57.859Z,71.71
2024-03-28T00:13:08.318Z,71.71
2024-03-28T00:13:18.774Z,71.61
2024-03-28T00:13:29.236Z,71.61
2024-03-28T00:13:39.699Z,71.61
2024-03-28T00:13:50.160Z,71.61
2024-03-28T00:14:00.622Z,71.71
2024-03-28T00:14:11.074Z,71.61
2024-03-28T00:14:21.532Z,71.61
2024-03-28T00:14:32.015Z,71.61
2024-03-28T00:14:42.223Z,71.61
2024-03-28T00:14:52.706Z,71.71
2024-03-28T00:15:02.919Z,71.61
2024-03-28T00:15:13.398Z,71.61
2024-03-28T00:15:25.584Z,71.50
2024-03-28T00:15:34.109Z,71.50
2024-03-28T00:15:44.575Z,71.40
2024-03-28T00:15:55.035Z,71.61
2024-03-28T00:16:06.063Z,71.61
2024-03-28T00:16:15.853Z,71.61
2024-03-28T00:16:26.067Z,71.50
2024-03-28T00:16:39.403Z,71.40
2024-03-28T00:16:46.797Z,71.40
2024-03-28T00:16:57.257Z,71.30
2024-03-28T00:17:07.711Z,71.30
2024-03-28T00:17:18.172Z,71.30
2024-03-28T00:17:28.636Z,71.19
2024-03-28T00:17:49.496Z,71.19
2024-03-28T00:17:59.956Z,71.19
2024-03-28T00:18:10.413Z,71.19
2024-03-28T00:18:20.880Z,71.19
2024-03-28T00:18:31.334Z,71.19
2024-03-28T00:18:41.795Z,71.19
2024-03-28T00:18:52.253Z,71.30
2024-03-28T00:19:03.000Z,71.50
2024-03-28T00:19:16.027Z,71.61
2024-03-28T00:19:30.348Z,71.71
2024-03-28T00:19:36.291Z,71.71
2024-03-28T00:19:44.204Z,71.81
2024-03-28T00:19:54.653Z,72.02
2024-03-28T00:20:05.114Z,72.12
2024-03-28T00:20:15.571Z,72.02
2024-03-28T00:20:26.030Z,72.64
2024-03-28T00:20:36.489Z,72.95
2024-03-28T00:20:46.951Z,73.16
2024-03-28T00:20:57.408Z,73.16
2024-03-28T00:21:08.422Z,73.05
2024-03-28T00:21:18.170Z,73.05
2024-03-28T00:21:28.628Z,73.05
2024-03-28T00:21:40.088Z,73.05
2024-03-28T00:21:49.376Z,73.05
2024-03-28T00:21:59.832Z,72.95
2024-03-28T00:22:10.287Z,72.85
2024-03-28T00:22:20.739Z,72.85
2024-03-28T00:22:31.198Z,72.74
2024-03-28T00:22:41.660Z,72.74
2024-03-28T00:22:52.118Z,72.74
2024-03-28T00:23:02.624Z,72.64
2024-03-28T00:23:12.809Z,72.53
2024-03-28T00:23:23.274Z,72.53
2024-03-28T00:23:33.531Z,72.43
2024-03-28T00:23:43.977Z,72.43
2024-03-28T00:23:54.464Z,72.43
2024-03-28T00:24:04.731Z,72.53
2024-03-28T00:24:14.944Z,72.74
2024-03-28T00:24:25.167Z,72.64
2024-03-28T00:24:35.627Z,72.64
2024-03-28T00:24:46.086Z,72.64
2024-03-28T00:24:56.545Z,72.64
2024-03-28T00:25:07.005Z,72.64
2024-03-28T00:25:17.520Z,72.64
2024-03-28T00:25:27.706Z,72.53
2024-03-28T00:25:38.167Z,72.53
2024-03-28T00:25:48.637Z,72.64
2024-03-28T00:25:59.087Z,73.26
2024-03-28T00:26:09.547Z,73.47
2024-03-28T00:26:20.005Z,73.36
2024-03-28T00:26:30.471Z,73.36
2024-03-28T00:26:40.926Z,73.16
2024-03-28T00:26:51.384Z,73.05
2024-03-28T00:27:01.845Z,73.47
2024-03-28T00:27:12.302Z,73.98
2024-03-28T00:27:22.760Z,74.40
2024-03-28T00:27:33.220Z,74.50
2024-03-28T00:27:43.677Z,74.40
2024-03-28T00:27:54.140Z,74.50
2024-03-28T00:28:04.597Z,74.50
2024-03-28T00:28:15.114Z,74.40
2024-03-28T00:28:25.329Z,74.29
2024-03-28T00:28:35.570Z,74.19
2024-03-28T00:28:45.809Z,73.98
2024-03-28T00:28:56.045Z,73.88
2024-03-28T00:29:06.276Z,73.77
2024-03-28T00:29:17.821Z,73.77
2024-03-28T00:29:27.100Z,73.67
2024-03-28T00:29:37.564Z,74.19
2024-03-28T00:29:48.015Z,74.91
2024-03-28T00:29:58.477Z,75.12
2024-03-28T00:30:08.952Z,75.43
2024-03-28T00:30:19.397Z,75.63
2024-03-28T00:30:29.864Z,75.63
2024-03-28T00:30:40.314Z,75.63
2024-03-28T00:30:50.773Z,75.63
2024-03-28T00:31:01.231Z,75.63
2024-03-28T00:31:11.699Z,75.63
2024-03-28T00:31:22.151Z,75.74
2024-03-28T00:31:32.633Z,75.63
2024-03-28T00:31:43.079Z,75.74
2024-03-28T00:31:53.541Z,75.74
2024-03-28T00:32:03.984Z,75.74
2024-03-28T00:32:14.446Z,75.74
2024-03-28T00:32:24.921Z,75.74
2024-03-28T00:32:35.362Z,75.63
2024-03-28T00:32:45.841Z,75.53
2024-03-28T00:32:56.286Z,75.53
2024-03-28T00:33:06.741Z,75.43
2024-03-28T00:33:18.984Z,75.32
2024-03-28T00:33:27.551Z,75.22
2024-03-28T00:33:38.037Z,75.22
2024-03-28T00:33:48.253Z,75.22
2024-03-28T00:33:58.711Z,75.12
2024-03-28T00:34:09.178Z,75.01
2024-03-28T00:34:19.648Z,74.91
2024-03-28T00:34:30.089Z,74.81
2024-03-28T00:34:40.336Z,74.71
2024-03-28T00:34:50.792Z,74.60
2024-03-28T00:35:01.252Z,74.50
2024-03-28T00:35:11.752Z,74.81
2024-03-28T00:35:22.165Z,75.01
2024-03-28T00:35:32.658Z,75.22
2024-03-28T00:35:43.086Z,75.22
2024-03-28T00:35:53.549Z,75.12
2024-03-28T00:36:04.006Z,75.01
2024-03-28T00:36:14.466Z,74.91
2024-03-28T00:36:24.938Z,74.71
2024-03-28T00:36:35.420Z,74.60
2024-03-28T00:36:45.854Z,74.71
2024-03-28T00:36:56.307Z,74.81
2024-03-28T00:37:06.767Z,74.71
2024-03-28T00:37:17.330Z,74.60
2024-03-28T00:37:27.537Z,74.81
2024-03-28T00:37:38.001Z,75.01
2024-03-28T00:37:49.520Z,75.01
2024-03-28T00:37:58.811Z,74.91
2024-03-28T00:38:09.036Z,74.81
2024-03-28T00:38:19.520Z,74.81
2024-03-28T00:38:29.915Z,74.81
2024-03-28T00:38:40.373Z,74.81
2024-03-28T00:38:50.694Z,74.81
2024-03-28T00:39:01.155Z,74.71
2024-03-28T00:39:11.620Z,74.71
2024-03-28T00:39:22.071Z,74.60
2024-03-28T00:39:32.622Z,74.50
2024-03-28T00:39:42.965Z,74.40
2024-03-28T00:39:53.415Z,74.29
2024-03-28T00:40:03.873Z,74.29
2024-03-28T00:40:14.335Z,74.19
2024-03-28T00:40:24.799Z,74.19
2024-03-28T00:40:35.245Z,74.08
2024-03-28T00:40:45.707Z,74.08
2024-03-28T00:40:56.167Z,74.19
2024-03-28T00:41:06.628Z,74.29
2024-03-28T00:41:17.085Z,74.71
2024-03-28T00:41:27.558Z,74.91
2024-03-28T00:41:38.024Z,75.01
2024-03-28T00:41:48.466Z,75.01
2024-03-28T00:41:58.924Z,74.81
2024-03-28T00:42:09.390Z,74.71
2024-03-28T00:42:19.849Z,74.50
2024-03-28T00:42:30.301Z,74.60
2024-03-28T00:42:40.824Z,74.60
2024-03-28T00:42:51.004Z,74.60
2024-03-28T00:43:01.489Z,74.60
2024-03-28T00:43:11.717Z,74.71
2024-03-28T00:43:22.163Z,74.91
2024-03-28T00:43:32.627Z,75.01
2024-03-28T00:43:42.891Z,75.01
2024-03-28T00:43:53.355Z,74.91
2024-03-28T00:44:03.809Z,74.81
2024-03-28T00:44:14.273Z,74.71
2024-03-28T00:44:24.729Z,74.60
2024-03-28T00:44:35.200Z,74.50
2024-03-28T00:44:45.646Z,74.40
2024-03-28T00:44:56.104Z,74.40
2024-03-28T00:45:06.564Z,74.29
2024-03-28T00:45:17.026Z,74.29
2024-03-28T00:45:27.481Z,74.19
2024-03-28T00:45:37.944Z,74.19
2024-03-28T00:45:48.399Z,74.08
2024-03-28T00:45:58.867Z,74.08
2024-03-28T00:46:09.324Z,73.98
2024-03-28T00:46:19.774Z,73.88
2024-03-28T00:46:30.236Z,73.77
2024-03-28T00:46:40.695Z,73.77
2024-03-28T00:46:51.158Z,73.77
2024-03-28T00:47:01.612Z,73.77
2024-03-28T00:47:11.857Z,73.77
2024-03-28T00:47:22.328Z,73.67
2024-03-28T00:47:32.645Z,73.57
2024-03-28T00:47:42.877Z,73.77
2024-03-28T00:47:53.100Z,73.98
2024-03-28T00:48:03.559Z,74.08
2024-03-28T00:48:14.046Z,74.19
2024-03-28T00:48:24.478Z,74.19
2024-03-28T00:48:34.934Z,74.19
2024-03-28T00:48:45.397Z,74.08
2024-03-28T00:48:55.867Z,73.98
2024-03-28T00:49:06.488Z,74.08
2024-03-28T00:49:16.783Z,74.29
2024-03-28T00:49:27.017Z,74.29
2024-03-28T00:49:38.544Z,74.29
2024-03-28T00:49:47.824Z,74.19
2024-03-28T00:49:58.282Z,74.19
2024-03-28T00:50:08.743Z,74.08
2024-03-28T00:50:19.208Z,73.98
2024-03-28T00:50:29.662Z,73.98
2024-03-28T00:50:40.121Z,73.98
2024-03-28T00:50:50.581Z,73.88
2024-03-28T00:51:01.052Z,73.88
2024-03-28T00:51:11.503Z,73.77
2024-03-28T00:51:21.957Z,73.77
2024-03-28T00:51:32.433Z,73.67
2024-03-28T00:51:42.874Z,73.57
2024-03-28T00:51:53.334Z,73.57
2024-03-28T00:52:03.810Z,73.67
2024-03-28T00:52:14.072Z,73.67
2024-03-28T00:52:24.506Z,73.67
2024-03-28T00:52:34.734Z,73.67
2024-03-28T00:52:45.195Z,73.67
2024-03-28T00:52:55.658Z,73.57
2024-03-28T00:53:06.142Z,73.57
2024-03-28T00:53:16.576Z,73.77
2024-03-28T00:53:27.036Z,73.98
2024-03-28T00:53:37.490Z,74.08
2024-03-28T00:53:47.944Z,74.08
2024-03-28T00:53:58.403Z,74.08
2024-03-28T00:54:08.870Z,74.29
2024-03-28T00:54:19.322Z,74.40
2024-03-28T00:54:29.783Z,74.50
2024-03-28T00:54:40.245Z,74.60
2024-03-28T00:54:50.701Z,74.81
2024-03-28T00:55:01.169Z,74.91
2024-03-28T00:55:11.630Z,74.91
2024-03-28T00:55:22.082Z,74.81
2024-03-28T00:55:32.588Z,74.71
2024-03-28T00:55:42.893Z,74.60
2024-03-28T00:55:55.124Z,74.91
2024-03-28T00:56:03.717Z,75.12
2024-03-28T00:56:14.176Z,75.22
2024-03-28T00:56:24.638Z,75.22
2024-03-28T00:56:35.092Z,75.22
2024-03-28T00:56:45.559Z,75.32
2024-03-28T00:56:55.782Z,75.32
2024-03-28T00:57:06.260Z,75.32
2024-03-28T00:57:16.480Z,75.32
2024-03-28T00:57:26.940Z,75.32
2024-03-28T00:57:37.474Z,75.43
2024-03-28T00:57:47.695Z,75.53
2024-03-28T00:57:58.156Z,75.53
2024-03-28T00:58:09.527Z,75.43
2024-03-28T00:58:19.089Z,75.32
2024-03-28T00:58:29.290Z,75.12
2024-03-28T00:58:39.740Z,75.01
2024-03-28T00:58:50.204Z,75.12
2024-03-28T00:59:00.670Z,75.32
2024-03-28T00:59:11.132Z,75.53
2024-03-28T00:59:21.583Z,75.63
2024-03-28T00:59:32.056Z,75.63
2024-03-28T00:59:42.506Z,75.67
2024-03-28T00:59:52.980Z,75.63
2024-03-28T01:00:03.426Z,75.63
2024-03-28T01:00:13.886Z,75.57
2024-03-28T01:00:24.345Z,75.46
2024-03-28T01:00:34.822Z,75.32
2024-03-28T01:00:45.273Z,75.36
2024-03-28T01:00:55.737Z,75.32
2024-03-28T01:01:06.187Z,75.26
2024-03-28T01:01:16.673Z,75.26
2024-03-28T01:01:26.899Z,75.12
2024-03-28T01:01:37.133Z,75.15
2024-03-28T01:01:47.604Z,75.01
2024-03-28T01:01:57.821Z,75.22
2024-03-28T01:02:08.281Z,75.32
2024-03-28T01:02:18.739Z,75.43
2024-03-28T01:02:29.199Z,75.43
2024-03-28T01:02:39.657Z,75.74
2024-03-28T01:02:50.116Z,75.88
2024-03-28T01:03:00.590Z,75.95
2024-03-28T01:03:11.033Z,75.95
2024-03-28T01:03:21.500Z,75.88
2024-03-28T01:03:31.955Z,75.78
2024-03-28T01:03:42.412Z,75.67
2024-03-28T01:03:52.874Z,75.67
2024-03-28T01:04:03.331Z,75.67
2024-03-28T01:04:13.808Z,75.67
2024-03-28T01:04:24.254Z,75.57
2024-03-28T01:04:34.726Z,75.57
2024-03-28T01:04:45.169Z,75.57
2024-03-28T01:04:55.641Z,75.43
2024-03-28T01:05:06.086Z,75.46
2024-03-28T01:05:16.569Z,75.36
2024-03-28T01:05:27.007Z,75.36
2024-03-28T01:05:37.466Z,75.26
2024-03-28T01:05:47.925Z,75.26
2024-03-28T01:05:58.400Z,75.12
2024-03-28T01:06:08.623Z,75.15
2024-03-28T01:06:19.100Z,75.36
2024-03-28T01:06:29.333Z,75.46
2024-03-28T01:06:40.506Z,75.46
2024-03-28T01:06:50.023Z,75.46
2024-03-28T01:07:00.479Z,75.46
2024-03-28T01:07:10.968Z,75.46
2024-03-28T01:07:21.176Z,75.46
2024-03-28T01:07:31.785Z,75.36
2024-03-28T01:07:41.997Z,75.36
2024-03-28T01:07:52.448Z,75.26
2024-03-28T01:08:02.912Z,75.15
2024-03-28T01:08:13.367Z,75.26
2024-03-28T01:08:23.830Z,75.36
2024-03-28T01:08:34.295Z,75.46
2024-03-28T01:08:44.768Z,75.36
2024-03-28T01:08:55.210Z,75.26
2024-03-28T01:09:05.677Z,75.15
2024-03-28T01:09:16.133Z,75.15
2024-03-28T01:09:26.589Z,75.05
2024-03-28T01:09:37.072Z,74.95
2024-03-28T01:09:47.505Z,74.74
2024-03-28T01:09:57.968Z,74.53
2024-03-28T01:10:08.424Z,74.43
2024-03-28T01:10:18.943Z,74.33
2024-03-28T01:10:29.132Z,74.33
2024-03-28T01:10:39.599Z,74.33
2024-03-28T01:10:49.818Z,74.33
2024-03-28T01:11:00.313Z,74.33
2024-03-28T01:11:10.523Z,74.33
2024-03-28T01:11:20.985Z,74.33
2024-03-28T01:11:31.445Z,74.22
2024-03-28T01:11:41.904Z,74.22
2024-03-28T01:11:52.362Z,74.22
2024-03-28T01:12:02.837Z,74.12
2024-03-28T01:12:13.302Z,74.12
2024-03-28T01:12:23.545Z,74.12
2024-03-28T01:12:34.007Z,74.12
2024-03-28T01:12:44.445Z,74.02
2024-03-28T01:12:54.910Z,74.02
2024-03-28T01:13:05.372Z,73.91
2024-03-28T01:13:15.868Z,73.81
2024-03-28T01:13:26.067Z,73.81
2024-03-28T01:13:36.526Z,73.71
2024-03-28T01:13:46.987Z,73.71
2024-03-28T01:13:57.444Z,73.71
2024-03-28T01:14:07.902Z,73.71
2024-03-28T01:14:18.362Z,73.71
2024-03-28T01:14:28.819Z,73.91
2024-03-28T01:14:39.535Z,74.22
2024-03-28T01:14:49.538Z,74.43
2024-03-28T01:14:59.985Z,74.43
2024-03-28T01:15:11.485Z,74.43
2024-03-28T01:15:20.779Z,74.33
2024-03-28T01:15:31.003Z,74.22
2024-03-28T01:15:41.477Z,74.12
2024-03-28T01:15:51.705Z,74.02
2024-03-28T01:16:02.157Z,74.12
2024-03-28T01:16:12.620Z,74.12
2024-03-28T01:16:23.077Z,74.22
2024-03-28T01:16:33.536Z,74.12
2024-03-28T01:16:43.999Z,74.12
2024-03-28T01:16:54.455Z,74.12
2024-03-28T01:17:04.916Z,74.12
2024-03-28T01:17:15.377Z,74.12
2024-03-28T01:17:25.850Z,74.12
2024-03-28T01:17:36.294Z,74.12
2024-03-28T01:17:46.752Z,74.02
2024-03-28T01:17:57.237Z,73.91
2024-03-28T01:18:10.385Z,73.91
2024-03-28T01:18:18.046Z,73.91
2024-03-28T01:18:28.509Z,73.81
2024-03-28T01:18:38.970Z,73.81
2024-03-28T01:18:49.427Z,73.71
2024-03-28T01:18:59.886Z,73.71
2024-03-28T01:19:10.344Z,73.71
2024-03-28T01:19:20.801Z,73.60
2024-03-28T01:19:31.261Z,73.60
2024-03-28T01:19:41.741Z,73.60
2024-03-28T01:19:52.181Z,73.71
2024-03-28T01:20:02.658Z,73.71
2024-03-28T01:20:12.888Z,73.71
2024-03-28T01:20:23.366Z,73.60
2024-03-28T01:20:33.607Z,73.60
2024-03-28T01:20:44.059Z,73.50
2024-03-28T01:20:54.510Z,73.50
2024-03-28T01:21:04.969Z,73.50
2024-03-28T01:21:15.431Z,73.39
2024-03-28T01:21:25.916Z,73.39
2024-03-28T01:21:36.361Z,73.39
2024-03-28T01:21:46.809Z,73.39
2024-03-28T01:21:57.269Z,73.29
2024-03-28T01:22:07.736Z,73.29
2024-03-28T01:22:18.246Z,73.29
2024-03-28T01:22:28.454Z,73.19
2024-03-28T01:22:38.928Z,73.19
2024-03-28T01:22:49.368Z,73.08
2024-03-28T01:22:59.833Z,73.08
2024-03-28T01:23:10.532Z,73.08
2024-03-28T01:23:20.743Z,73.08
2024-03-28T01:23:31.208Z,73.08
2024-03-28T01:23:42.776Z,73.08
2024-03-28T01:23:52.074Z,73.19
2024-03-28T01:24:02.529Z,73.19
2024-03-28T01:24:12.972Z,73.29
2024-03-28T01:24:23.432Z,73.29
2024-03-28T01:24:33.915Z,73.39
2024-03-28T01:24:44.149Z,73.39
2024-03-28T01:24:54.398Z,73.39
2024-03-28T01:25:04.633Z,73.29
2024-03-28T01:25:14.944Z,73.29
2024-03-28T01:25:25.128Z,73.19
2024-03-28T01:25:35.582Z,73.19
2024-03-28T01:25:46.043Z,73.19
2024-03-28T01:25:56.503Z,73.08
2024-03-28T01:26:06.965Z,73.08
2024-03-28T01:26:17.431Z,73.08
2024-03-28T01:26:27.881Z,73.19
2024-03-28T01:26:38.339Z,73.29
2024-03-28T01:26:48.799Z,73.50
2024-03-28T01:26:59.258Z,73.50
2024-03-28T01:27:09.715Z,73.50
2024-03-28T01:27:20.191Z,73.50
2024-03-28T01:27:30.635Z,73.39
2024-03-28T01:27:41.100Z,73.39
2024-03-28T01:27:51.559Z,73.29
2024-03-28T01:28:02.012Z,73.29
2024-03-28T01:28:14.029Z,73.19
2024-03-28T01:28:22.888Z,73.19
2024-03-28T01:28:33.329Z,73.08
2024-03-28T01:28:43.788Z,73.08
2024-03-28T01:28:54.250Z,73.08
2024-03-28T01:29:04.705Z,73.19
2024-03-28T01:29:15.171Z,73.19
2024-03-28T01:29:25.398Z,73.19
2024-03-28T01:29:35.874Z,73.19
2024-03-28T01:29:46.103Z,73.19
2024-03-28T01:29:56.554Z,73.19
2024-03-28T01:30:07.011Z,73.08
2024-03-28T01:30:17.476Z,73.08
2024-03-28T01:30:27.930Z,72.98
2024-03-28T01:30:38.526Z,72.98
2024-03-28T01:30:48.746Z,72.98
2024-03-28T01:30:59.201Z,72.88
2024-03-28T01:31:10.472Z,72.88
2024-03-28T01:31:19.987Z,72.78
2024-03-28T01:31:30.450Z,72.78
2024-03-28T01:31:40.905Z,72.88
2024-03-28T01:31:51.201Z,72.88
2024-03-28T01:32:01.658Z,72.88
2024-03-28T01:32:12.129Z,72.88
2024-03-28T01:32:22.597Z,72.78
2024-03-28T01:32:33.048Z,72.78
2024-03-28T01:32:43.494Z,72.78
2024-03-28T01:32:53.957Z,72.78
2024-03-28T01:33:04.414Z,72.78
2024-03-28T01:33:14.875Z,72.78
2024-03-28T01:33:25.339Z,72.78
2024-03-28T01:33:35.791Z,72.67
2024-03-28T01:33:46.252Z,72.67
2024-03-28T01:33:56.726Z,72.78
2024-03-28T01:34:06.956Z,72.88
2024-03-28T01:34:17.455Z,72.88
2024-03-28T01:34:27.649Z,72.88
2024-03-28T01:34:38.111Z,72.88
2024-03-28T01:34:48.604Z,72.78
2024-03-28T01:34:59.025Z,72.67
2024-03-28T01:35:09.490Z,72.67
2024-03-28T01:35:19.942Z,72.67
2024-03-28T01:35:30.404Z,72.57
2024-03-28T01:35:40.864Z,72.47
2024-03-28T01:35:51.325Z,72.36
2024-03-28T01:36:01.785Z,72.36
2024-03-28T01:36:12.246Z,72.36
2024-03-28T01:36:22.704Z,72.36
2024-03-28T01:36:33.175Z,72.36
2024-03-28T01:36:43.640Z,72.36
2024-03-28T01:36:54.083Z,72.26
2024-03-28T01:37:04.551Z,72.26
2024-03-28T01:37:15.069Z,72.26
2024-03-28T01:37:25.291Z,72.16
2024-03-28T01:37:35.753Z,72.16
2024-03-28T01:37:46.210Z,72.16
2024-03-28T01:37:56.669Z,72.16
2024-03-28T01:38:07.129Z,72.16
2024-03-28T01:38:17.596Z,72.16
2024-03-28T01:38:28.053Z,72.16
2024-03-28T01:38:38.523Z,72.16
2024-03-28T01:38:48.742Z,72.16
2024-03-28T01:38:59.224Z,72.26
2024-03-28T01:39:10.529Z,72.26
2024-03-28T01:39:19.826Z,72.26
2024-03-28T01:39:30.268Z,72.47
2024-03-28T01:39:40.730Z,72.57
2024-03-28T01:39:51.186Z,72.57
2024-03-28T01:40:01.657Z,72.57
2024-03-28T01:40:12.117Z,72.57
2024-03-28T01:40:22.570Z,72.57
2024-03-28T01:40:33.027Z,72.57
2024-03-28T01:40:43.485Z,72.57
2024-03-28T01:40:53.945Z,72.57
2024-03-28T01:41:04.405Z,72.57
2024-03-28T01:41:14.864Z,72.57
2024-03-28T01:41:25.324Z,72.57
2024-03-28T01:41:35.786Z,72.57
2024-03-28T01:41:46.247Z,72.47
2024-03-28T01:41:56.711Z,72.47
2024-03-28T01:42:07.169Z,72.47
2024-03-28T01:42:17.635Z,72.47
2024-03-28T01:42:28.086Z,72.47
2024-03-28T01:42:38.547Z,72.47
2024-03-28T01:42:49.011Z,72.47
2024-03-28T01:42:59.468Z,72.47
2024-03-28T01:43:09.924Z,72.47
2024-03-28T01:43:20.403Z,72.47
2024-03-28T01:43:30.634Z,72.36
2024-03-28T01:43:41.096Z,72.36
2024-03-28T01:43:51.351Z,72.36
2024-03-28T01:44:01.805Z,72.36
2024-03-28T01:44:12.246Z,72.36
2024-03-28T01:44:22.704Z,72.36
2024-03-28T01:44:33.182Z,72.36
2024-03-28T01:44:43.637Z,72.36
2024-03-28T01:44:54.085Z,72.36
2024-03-28T01:45:04.542Z,72.36
2024-03-28T01:45:15.002Z,72.36
2024-03-28T01:45:25.464Z,72.36
2024-03-28T01:45:35.925Z,72.36
2024-03-28T01:45:46.382Z,72.36
2024-03-28T01:45:56.846Z,72.36
2024-03-28T01:46:07.643Z,72.36
2024-03-28T01:46:27.078Z,72.36
2024-03-28T01:46:40.534Z,72.36
2024-03-28T01:46:43.702Z,72.36
2024-03-28T01:47:02.369Z,72.36
2024-03-28T01:47:17.488Z,72.36
2024-03-28T01:47:26.073Z,72.26
2024-03-28T01:47:36.328Z,72.26
2024-03-28T01:47:48.192Z,72.36
2024-03-28T01:47:48.840Z,72.36
2024-03-28T01:48:02.818Z,72.47
2024-03-28T01:48:10.725Z,72.47
2024-03-28T01:48:21.183Z,72.47
2024-03-28T01:48:31.409Z,72.47
2024-03-28T01:48:41.912Z,72.47
2024-03-28T01:48:52.110Z,72.47
2024-03-28T01:49:02.588Z,72.47
2024-03-28T01:49:13.035Z,72.47
2024-03-28T01:49:23.487Z,72.47
2024-03-28T01:49:33.944Z,72.47
2024-03-28T01:49:44.404Z,72.47
2024-03-28T01:49:54.885Z,72.47
2024-03-28T01:50:05.325Z,72.47
2024-03-28T01:50:15.782Z,72.39
2024-03-28T01:50:26.245Z,72.36
2024-03-28T01:50:36.702Z,72.26
2024-03-28T01:50:47.159Z,72.26
2024-03-28T01:50:57.626Z,72.26
2024-03-28T01:51:08.089Z,72.16
2024-03-28T01:51:18.539Z,72.16
2024-03-28T01:51:28.999Z,72.16
2024-03-28T01:51:39.459Z,72.19
2024-03-28T01:51:49.920Z,72.19
2024-03-28T01:52:00.382Z,72.05
2024-03-28T01:52:10.842Z,72.05
2024-03-28T01:52:21.316Z,72.05
2024-03-28T01:52:31.783Z,72.08
2024-03-28T01:52:42.008Z,71.95
2024-03-28T01:52:52.461Z,71.98
2024-03-28T01:53:02.938Z,72.05
2024-03-28T01:53:13.165Z,72.08
2024-03-28T01:53:23.621Z,72.08
2024-03-28T01:53:34.093Z,71.98
2024-03-28T01:53:44.537Z,71.98
2024-03-28T01:53:55.010Z,71.98
2024-03-28T01:54:05.525Z,71.84
2024-03-28T01:54:15.732Z,71.84
2024-03-28T01:54:26.198Z,71.88
2024-03-28T01:54:37.564Z,71.88
2024-03-28T01:54:47.094Z,71.88
2024-03-28T01:54:57.541Z,71.88
2024-03-28T01:55:08.010Z,71.88
2024-03-28T01:55:18.563Z,71.88
2024-03-28T01:55:28.794Z,71.88
2024-03-28T01:55:39.255Z,71.88
2024-03-28T01:55:49.720Z,71.78
2024-03-28T01:56:00.198Z,71.78
2024-03-28T01:56:10.638Z,71.88
2024-03-28T01:56:21.099Z,71.78
2024-03-28T01:56:31.570Z,71.78
2024-03-28T01:56:42.020Z,71.78
2024-03-28T01:56:52.479Z,71.78
2024-03-28T01:57:02.936Z,71.78
2024-03-28T01:57:15.097Z,71.78
2024-03-28T01:57:23.723Z,71.78
2024-03-28T01:57:34.286Z,71.78
2024-03-28T01:57:44.525Z,71.78
2024-03-28T01:57:55.010Z,71.78
2024-03-28T01:58:05.453Z,71.78
2024-03-28T01:58:15.917Z,71.78
2024-03-28T01:58:26.368Z,71.78
2024-03-28T01:58:36.830Z,71.88
2024-03-28T01:58:47.286Z,71.88
2024-03-28T01:58:57.750Z,71.88
2024-03-28T01:59:08.210Z,71.88
2024-03-28T01:59:18.672Z,71.88
2024-03-28T01:59:29.139Z,71.88
2024-03-28T01:59:39.595Z,71.88
2024-03-28T01:59:50.059Z,71.88
2024-03-28T02:00:00.525Z,71.88
2024-03-28T02:00:10.981Z,71.88
2024-03-28T02:00:21.442Z,71.88
2024-03-28T02:00:31.910Z,71.88
2024-03-28T02:00:42.366Z,71.88
2024-03-28T02:00:52.841Z,71.88
2024-03-28T02:01:03.295Z,71.88
2024-03-28T02:01:13.768Z,71.88
2024-03-28T02:01:24.222Z,71.88
2024-03-28T02:01:34.682Z,71.88
2024-03-28T02:01:45.149Z,71.88
2024-03-28T02:01:55.392Z,71.88
2024-03-28T02:02:05.620Z,72.08
2024-03-28T02:02:16.093Z,72.19
2024-03-28T02:02:26.326Z,72.29
2024-03-28T02:02:36.773Z,72.29
2024-03-28T02:02:47.234Z,72.19
2024-03-28T02:02:57.706Z,72.19
2024-03-28T02:03:08.552Z,72.08
2024-03-28T02:03:18.528Z,72.08
2024-03-28T02:03:28.989Z,72.08
2024-03-28T02:03:39.446Z,72.08
2024-03-28T02:03:49.751Z,71.98
2024-03-28T02:04:00.221Z,72.08
2024-03-28T02:04:10.678Z,72.08
2024-03-28T02:04:21.127Z,72.08
2024-03-28T02:04:31.599Z,72.08
2024-03-28T02:04:42.041Z,72.08
2024-03-28T02:04:52.515Z,72.08
2024-03-28T02:05:02.973Z,71.98
2024-03-28T02:05:13.423Z,71.98
2024-03-28T02:05:23.879Z,72.08
2024-03-28T02:05:34.355Z,72.08
2024-03-28T02:05:44.800Z,72.08
2024-03-28T02:05:55.265Z,72.08
2024-03-28T02:06:05.724Z,72.08
2024-03-28T02:06:16.184Z,71.98
2024-03-28T02:06:26.644Z,71.98
2024-03-28T02:06:37.113Z,71.98
2024-03-28T02:06:47.339Z,71.98
2024-03-28T02:06:57.815Z,71.88
2024-03-28T02:07:08.041Z,71.88
2024-03-28T02:07:18.531Z,71.88
2024-03-28T02:07:28.963Z,71.88
2024-03-28T02:07:39.427Z,71.98
2024-03-28T02:07:49.899Z,71.98
2024-03-28T02:08:00.366Z,71.98
2024-03-28T02:08:10.801Z,71.98
2024-03-28T02:08:21.272Z,71.98
2024-03-28T02:08:31.499Z,71.98
2024-03-28T02:08:41.957Z,71.98
2024-03-28T02:08:52.435Z,71.88
2024-03-28T02:09:02.913Z,71.88
2024-03-28T02:09:13.121Z,71.88
2024-03-28T02:09:23.593Z,71.88
2024-03-28T02:09:34.040Z,71.88
2024-03-28T02:09:44.500Z,71.88
2024-03-28T02:09:54.962Z,71.88
2024-03-28T02:10:05.435Z,71.88
2024-03-28T02:10:15.907Z,71.98
2024-03-28T02:10:26.343Z,72.08
2024-03-28T02:10:36.805Z,72.08
2024-03-28T02:10:47.260Z,72.08
2024-03-28T02:10:57.720Z,72.08
2024-03-28T02:11:08.491Z,72.08
2024-03-28T02:11:18.500Z,72.08
2024-03-28T02:11:28.722Z,71.98
2024-03-28T02:11:39.189Z,72.08
2024-03-28T02:11:49.434Z,72.08
2024-03-28T02:11:59.872Z,72.08
2024-03-28T02:12:12.783Z,72.08
2024-03-28T02:12:20.711Z,72.08
2024-03-28T02:12:31.143Z,72.08
2024-03-28T02:12:41.594Z,72.29
2024-03-28T02:12:52.059Z,72.71
2024-03-28T02:13:02.517Z,72.81
2024-03-28T02:13:13.005Z,72.81
2024-03-28T02:13:23.442Z,72.81
2024-03-28T02:13:33.900Z,72.71
2024-03-28T02:13:44.355Z,72.60
2024-03-28T02:13:54.820Z,72.50
2024-03-28T02:14:05.276Z,72.39
2024-03-28T02:14:15.736Z,72.29
2024-03-28T02:14:26.195Z,72.29
2024-03-28T02:14:36.655Z,72.19
2024-03-28T02:14:47.122Z,72.19